ESOW/VST METAR and TAF weather

Enter ICAO airport designator
Station Type Date Time Source
ESOW METAR 2019/02/20 07:20 UTC NOAA

ESOW 200720Z 31012KT CAVOK 01/M10 Q1007 R01/71//95


Station Type Date Time Source
ESOW Decoded METAR 2019/02/20 07:20 UTC NOAA

Vasteras / Hasslo, Sweden (ESOW) 59-35N 016-38E 31M
Feb 20, 2019 - 02:20 AM EST / 2019.02.20 0720 UTC
Wind: from the NW (310 degrees) at 14 MPH (12 KT):0
Visibility: greater than 7 mile(s):0
Temperature: 33 F (1 C)
Windchill: 23 F (-5 C):1
Dew Point: 14 F (-10 C)
Relative Humidity: 43%
Pressure (altimeter): 29.74 in. Hg (1007 hPa)
ob: ESOW 200720Z 31012KT CAVOK 01/M10 Q1007 R01/71//95
cycle: 7

Station Type Date Time Source
ESOW TAF 2018/11/18 12:33 UTC NOAA

TAF ESOW 181130Z 1812/1914 02015KT 9999 BKN020
TEMPO 1812/1814 02015G25KT


Example: see airport list